Time;durP1;ratioP1;P1;durP2;ratioP2;P2;SDS_P1;SDS_P2;PMS_P1;PMS_P2;Temp;Humidity;BMP_temperature;BMP_pressure;BME280_temperature;BME280_humidity;BME280_pressure;Samples;Min_cycle;Max_cycle;Signal;HPM_P1;HPM_P2
2021/12/14 00:02:06;;;;;;;;;;;;;;;10.26;72.53;100843.88;5052267;28;19932;-60
2021/12/14 00:04:33;;;;;;;;;;;;;;;10.27;72.15;100839.44;5053357;28;19920;-60
2021/12/14 00:07:02;;;;;;;;;;;;;;;10.26;72.43;100822.81;5053339;28;19935;-60
2021/12/14 00:09:34;;;;;;;;;;;;;;;10.25;72.14;100809.72;5051740;28;19927;-60
2021/12/14 00:16:59;;;;;;;;;;;;;;;10.25;72.02;100820.25;5053440;28;19920;-60
2021/12/14 00:19:27;;;;;;;;;;;;;;;10.23;72.24;100827.31;5052534;28;19936;-60
2021/12/14 00:22:02;;;;;;;;;;;;;;;10.22;71.75;100839.66;5052965;28;19974;-61
2021/12/14 00:24:29;;;;;;;;;;;;;;;10.22;72.25;100833.50;5051830;28;19920;-60
2021/12/14 00:27:06;;;;;;;;;;;;;;;10.22;72.38;100842.28;5053086;28;19936;-61
2021/12/14 00:29:35;;;;;;;;;;;;;;;10.21;72.74;100840.53;5052636;28;19928;-60
2021/12/14 00:32:05;;;;;;;;;;;;;;;10.21;72.83;100842.34;5052010;28;19925;-61
2021/12/14 00:34:39;;;;;;;;;;;;;;;10.20;72.31;100841.47;5051456;28;19925;-60
2021/12/14 00:37:07;;;;;;;;;;;;;;;10.19;71.94;100842.38;5050701;28;20424;-61
2021/12/14 00:39:35;;;;;;;;;;;;;;;10.19;72.60;100842.38;5052273;28;20361;-62
2021/12/14 00:42:02;;;;;;;;;;;;;;;10.20;72.50;100835.38;5052473;28;19955;-61
2021/12/14 00:44:29;;;;;;;;;;;;;;;10.19;71.90;100831.00;5052613;28;19982;-60
2021/12/14 00:46:56;;;;;;;;;;;;;;;10.20;72.67;100827.47;5051108;28;19932;-61
2021/12/14 00:49:23;;;;;;;;;;;;;;;10.18;72.22;100822.25;5052220;28;19929;-61
2021/12/14 00:51:50;;;;;;;;;;;;;;;10.18;71.92;100819.63;5053131;28;19921;-60
2021/12/14 00:54:17;;;;;;;;;;;;;;;10.16;71.43;100805.66;5052457;28;20288;-60
2021/12/14 00:56:44;;;;;;;;;;;;;;;10.16;72.02;100808.28;5052393;28;19929;-61
2021/12/14 00:59:13;;;;;;;;;;;;;;;10.15;71.92;100809.22;5052234;28;19970;-61
2021/12/14 01:01:41;;;;;;;;;;;;;;;10.14;72.00;100810.13;5052113;28;19927;-60
2021/12/14 01:04:19;;;;;;;;;;;;;;;10.13;71.95;100821.59;5052280;28;19924;-60
2021/12/14 01:06:46;;;;;;;;;;;;;;;10.11;72.50;100829.53;5052384;28;20394;-60
2021/12/14 01:09:17;;;;;;;;;;;;;;;10.10;71.99;100827.78;5051903;28;19929;-62
2021/12/14 01:11:46;;;;;;;;;;;;;;;10.10;71.89;100826.94;5051825;28;19932;-62
2021/12/14 01:14:27;;;;;;;;;;;;;;;10.07;72.09;100820.03;5052202;28;19933;-60
2021/12/14 01:17:09;;;;;;;;;;;;;;;10.06;71.94;100826.22;5050736;28;19924;-60
2021/12/14 01:19:38;;;;;;;;;;;;;;;10.04;72.04;100822.78;5051814;28;19921;-60
2021/12/14 01:22:24;;;;;;;;;;;;;;;10.03;71.71;100827.16;5051750;28;19925;-60
2021/12/14 01:25:02;;;;;;;;;;;;;;;10.03;71.89;100834.22;5051790;28;20500;-60
2021/12/14 01:27:33;;;;;;;;;;;;;;;10.01;71.82;100828.13;5051715;28;19986;-60
2021/12/14 01:30:05;;;;;;;;;;;;;;;10.01;71.75;100829.00;5050392;28;19935;-61
2021/12/14 01:32:35;;;;;;;;;;;;;;;10.01;72.21;100842.16;5050791;28;19921;-60
2021/12/14 01:35:06;;;;;;;;;;;;;;;9.99;71.80;100843.97;5051555;28;19928;-60
2021/12/14 01:37:41;;;;;;;;;;;;;;;9.99;72.10;100836.09;5050521;28;19920;-60
2021/12/14 01:40:17;;;;;;;;;;;;;;;9.99;72.32;100841.34;5051371;28;19924;-62
2021/12/14 01:42:46;;;;;;;;;;;;;;;9.99;72.48;100835.25;5050100;28;20372;-60
2021/12/14 01:45:16;;;;;;;;;;;;;;;9.98;72.54;100821.22;5050117;28;19921;-60
2021/12/14 01:47:55;;;;;;;;;;;;;;;9.98;72.71;100821.22;5049969;28;19921;-60
2021/12/14 01:50:24;;;;;;;;;;;;;;;9.98;72.40;100828.28;5050840;28;20015;-62
2021/12/14 01:52:51;;;;;;;;;;;;;;;9.97;72.59;100819.50;5050018;28;19925;-60
2021/12/14 01:55:24;;;;;;;;;;;;;;;9.96;72.41;100816.94;5051277;28;19925;-60
2021/12/14 01:57:53;;;;;;;;;;;;;;;9.95;71.63;100802.06;5051189;28;19982;-60
2021/12/14 02:00:22;;;;;;;;;;;;;;;9.94;72.01;100798.56;5050028;28;19920;-60
2021/12/14 02:02:50;;;;;;;;;;;;;;;9.93;72.20;100804.75;5051338;28;20054;-60
2021/12/14 02:05:22;;;;;;;;;;;;;;;9.93;72.54;100796.88;5050050;28;19978;-60
2021/12/14 02:07:49;;;;;;;;;;;;;;;9.91;72.67;100791.66;5033265;28;19921;-60
2021/12/14 02:10:20;;;;;;;;;;;;;;;9.92;72.85;100787.28;5049795;28;19920;-61
2021/12/14 02:12:46;;;;;;;;;;;;;;;9.93;72.62;100780.22;5049823;28;19978;-61
2021/12/14 02:15:19;;;;;;;;;;;;;;;9.90;71.61;100766.28;5050989;28;19931;-60
2021/12/14 02:17:46;;;;;;;;;;;;;;;9.90;72.37;100752.28;5049705;28;19920;-60
2021/12/14 02:20:14;;;;;;;;;;;;;;;9.89;72.57;100737.41;5050649;28;19979;-60
2021/12/14 02:22:40;;;;;;;;;;;;;;;9.88;72.53;100747.06;5049563;28;19943;-60
2021/12/14 02:25:07;;;;;;;;;;;;;;;9.85;71.71;100744.56;5050838;28;19932;-61
2021/12/14 02:27:35;;;;;;;;;;;;;;;9.86;72.08;100724.38;5051219;28;19931;-60
2021/12/14 02:30:05;;;;;;;;;;;;;;;9.84;72.10;100727.09;5049535;28;19920;-61
2021/12/14 02:32:32;;;;;;;;;;;;;;;9.83;71.37;100737.66;5050939;28;19921;-60
2021/12/14 02:35:00;;;;;;;;;;;;;;;9.83;71.97;100721.88;5049598;28;20377;-61
2021/12/14 02:37:56;;;;;;;;;;;;;;;9.82;72.15;100722.78;5050543;28;20092;-61
2021/12/14 02:40:53;;;;;;;;;;;;;;;9.81;72.12;100727.19;5045079;28;19947;-61
2021/12/14 02:43:20;;;;;;;;;;;;;;;9.78;72.07;100737.81;5050604;28;19928;-60
2021/12/14 02:45:46;;;;;;;;;;;;;;;9.76;71.69;100747.56;5049698;28;19930;-60
2021/12/14 02:48:13;;;;;;;;;;;;;;;9.77;72.27;100754.53;5050687;28;19974;-62
2021/12/14 02:50:39;;;;;;;;;;;;;;;9.76;72.31;100768.59;5050669;28;19954;-61
2021/12/14 02:53:06;;;;;;;;;;;;;;;9.75;72.24;100770.34;5050797;28;19925;-60
2021/12/14 02:55:32;;;;;;;;;;;;;;;9.75;72.31;100762.47;5050782;28;19939;-60
2021/12/14 02:58:03;;;;;;;;;;;;;;;9.74;72.03;100763.38;5032794;28;19929;-62
2021/12/14 03:00:32;;;;;;;;;;;;;;;9.77;72.76;100757.16;5051054;28;19931;-60
2021/12/14 03:02:59;;;;;;;;;;;;;;;9.77;73.00;100754.53;5054484;28;19920;-60
2021/12/14 03:05:30;;;;;;;;;;;;;;;9.77;73.13;100759.78;5054454;28;19925;-60
2021/12/14 03:08:17;;;;;;;;;;;;;;;9.79;72.31;100763.19;5054478;28;20266;-61
2021/12/14 03:10:58;;;;;;;;;;;;;;;9.80;72.88;100775.44;5052858;28;19925;-60
2021/12/14 03:13:35;;;;;;;;;;;;;;;9.81;72.77;100769.28;5054524;28;19924;-60
2021/12/14 03:16:03;;;;;;;;;;;;;;;9.82;72.41;100776.25;5053104;28;19924;-61
2021/12/14 03:18:31;;;;;;;;;;;;;;;9.84;73.06;100770.91;5054136;28;19925;-62
2021/12/14 03:21:00;;;;;;;;;;;;;;;9.84;73.12;100774.41;5053718;28;20435;-60
2021/12/14 03:23:30;;;;;;;;;;;;;;;9.86;72.95;100769.94;5054138;28;19971;-60
2021/12/14 03:25:58;;;;;;;;;;;;;;;9.88;73.02;100772.53;5052862;28;19932;-60
2021/12/14 03:28:26;;;;;;;;;;;;;;;9.88;73.00;100780.41;5054102;28;19967;-60
2021/12/14 03:30:58;;;;;;;;;;;;;;;9.89;73.10;100775.09;5053774;28;19925;-60
2021/12/14 03:33:27;;;;;;;;;;;;;;;9.90;73.11;100778.56;5053940;28;19921;-60
2021/12/14 03:35:59;;;;;;;;;;;;;;;9.90;72.71;100782.06;5052613;28;19920;-62
2021/12/14 03:38:25;;;;;;;;;;;;;;;9.91;72.79;100775.03;5053865;28;20502;-59
2021/12/14 03:40:57;;;;;;;;;;;;;;;9.91;72.33;100775.03;5053705;28;20373;-62
2021/12/14 03:43:24;;;;;;;;;;;;;;;9.91;72.58;100775.03;5053974;28;20444;-60
2021/12/14 03:45:51;;;;;;;;;;;;;;;9.92;72.57;100776.75;5053639;28;19921;-61
2021/12/14 03:48:20;;;;;;;;;;;;;;;9.91;72.49;100773.25;5053527;28;19980;-60
2021/12/14 03:50:46;;;;;;;;;;;;;;;9.90;72.48;100763.66;5052264;28;20426;-61
2021/12/14 03:53:13;;;;;;;;;;;;;;;9.90;72.98;100757.53;5054010;28;19948;-60
2021/12/14 03:55:43;;;;;;;;;;;;;;;9.89;73.08;100746.16;5053771;28;20357;-60
2021/12/14 03:58:13;;;;;;;;;;;;;;;9.88;72.78;100743.59;5053588;28;19921;-60
2021/12/14 04:00:44;;;;;;;;;;;;;;;9.88;72.04;100733.06;5052943;28;20419;-60
2021/12/14 04:03:14;;;;;;;;;;;;;;;9.87;72.02;100731.38;5053401;28;19975;-60
2021/12/14 04:05:42;;;;;;;;;;;;;;;9.85;72.35;100738.44;5053514;28;19921;-60
2021/12/14 04:08:09;;;;;;;;;;;;;;;9.84;72.64;100726.22;5053288;28;19940;-63
2021/12/14 04:10:37;;;;;;;;;;;;;;;9.82;72.44;100734.16;5051865;28;19928;-60
2021/12/14 04:13:04;;;;;;;;;;;;;;;9.82;72.99;100735.91;5052047;28;20412;-61
2021/12/14 04:15:30;;;;;;;;;;;;;;;9.82;73.13;100741.19;5045141;28;19920;-61
2021/12/14 04:17:57;;;;;;;;;;;;;;;9.80;73.00;100735.13;5049698;28;19999;-60
2021/12/14 04:20:26;;;;;;;;;;;;;;;9.78;73.09;100736.06;5052653;28;19924;-62
2021/12/14 04:22:54;;;;;;;;;;;;;;;9.80;73.01;100735.13;5052824;28;19921;-62
2021/12/14 04:25:23;;;;;;;;;;;;;;;9.78;72.90;100746.59;5051669;28;19925;-61
2021/12/14 04:27:50;;;;;;;;;;;;;;;9.76;72.92;100729.16;5052559;28;19995;-64
2021/12/14 04:30:18;;;;;;;;;;;;;;;9.78;73.04;100730.81;5052886;28;19921;-61
2021/12/14 04:32:46;;;;;;;;;;;;;;;9.76;72.67;100740.50;5052741;28;20050;-61
2021/12/14 04:35:12;;;;;;;;;;;;;;;9.76;72.77;100737.03;5052602;28;20340;-59
2021/12/14 04:37:41;;;;;;;;;;;;;;;9.76;72.67;100737.03;5052385;28;19975;-59
2021/12/14 04:40:23;;;;;;;;;;;;;;;9.75;72.39;100754.56;5052053;28;19932;-60
2021/12/14 04:54:02;;;;;;;;;;;;;;;9.76;73.48;100751.03;5052084;28;20424;-61
2021/12/14 04:56:33;;;;;;;;;;;;;;;9.78;73.29;100758.84;5050829;28;19925;-60
2021/12/14 04:59:02;;;;;;;;;;;;;;;9.79;73.18;100755.31;5050832;28;19920;-62
2021/12/14 05:01:32;;;;;;;;;;;;;;;9.80;73.51;100753.53;5052003;28;20027;-61
2021/12/14 05:04:03;;;;;;;;;;;;;;;9.81;73.74;100742.09;5052298;28;19921;-61
2021/12/14 05:06:47;;;;;;;;;;;;;;;9.81;73.63;100740.34;5052019;28;20019;-60
2021/12/14 05:09:26;;;;;;;;;;;;;;;9.82;73.16;100730.66;5050352;28;19920;-61
2021/12/14 05:11:53;;;;;;;;;;;;;;;9.82;73.37;100733.28;5052229;28;19924;-60
2021/12/14 05:14:20;;;;;;;;;;;;;;;9.83;73.55;100729.78;5051927;28;19927;-60
2021/12/14 05:16:47;;;;;;;;;;;;;;;9.83;73.63;100729.78;5051900;28;19943;-60
2021/12/14 05:19:28;;;;;;;;;;;;;;;9.83;73.83;100727.97;5051837;28;20411;-61
2021/12/14 05:22:00;;;;;;;;;;;;;;;9.84;73.29;100728.84;5051910;28;20325;-60
2021/12/14 05:24:27;;;;;;;;;;;;;;;9.83;73.68;100725.34;5050696;28;20427;-61
2021/12/14 05:26:56;;;;;;;;;;;;;;;9.84;73.52;100732.34;5052031;28;19931;-60
2021/12/14 05:29:24;;;;;;;;;;;;;;;9.84;73.71;100729.72;5051540;28;20368;-61
2021/12/14 05:31:52;;;;;;;;;;;;;;;9.85;73.51;100736.69;5051564;28;19963;-61
2021/12/14 05:34:20;;;;;;;;;;;;;;;9.84;73.65;100734.97;5051692;28;20407;-62
2021/12/14 05:36:47;;;;;;;;;;;;;;;9.84;73.47;100729.72;5051447;28;19920;-60
2021/12/14 05:44:37;;;;;;;;;;;;;;;9.84;73.92;100736.75;5051426;28;19921;-61
2021/12/14 05:47:06;;;;;;;;;;;;;;;9.85;73.81;100739.31;5049312;28;19931;-60
2021/12/14 05:49:34;;;;;;;;;;;;;;;9.85;73.63;100735.81;5049661;28;19970;-61
2021/12/14 05:52:06;;;;;;;;;;;;;;;9.86;73.68;100737.53;5051223;28;19920;-62
2021/12/14 05:54:32;;;;;;;;;;;;;;;9.84;73.55;100736.75;5050064;28;19970;-61
2021/12/14 05:57:01;;;;;;;;;;;;;;;9.85;73.69;100736.69;5051117;28;20642;-62
2021/12/14 05:59:29;;;;;;;;;;;;;;;9.86;73.74;100737.53;5050721;28;19951;-60
2021/12/14 06:01:56;;;;;;;;;;;;;;;9.86;73.88;100732.25;5051045;28;20377;-60
2021/12/14 06:04:33;;;;;;;;;;;;;;;9.87;74.21;100728.75;5051125;28;19925;-62
2021/12/14 06:07:00;;;;;;;;;;;;;;;9.87;73.84;100745.34;5051175;28;19924;-61
2021/12/14 06:09:29;;;;;;;;;;;;;;;9.87;73.75;100742.72;5049622;28;20388;-60
2021/12/14 06:12:00;;;;;;;;;;;;;;;9.87;74.12;100748.00;5050194;28;19933;-62
2021/12/14 06:14:28;;;;;;;;;;;;;;;9.87;73.85;100749.78;5048882;28;19928;-60
2021/12/14 06:16:56;;;;;;;;;;;;;;;9.87;73.73;100765.56;5051126;28;19920;-60
2021/12/14 06:19:23;;;;;;;;;;;;;;;9.86;73.83;100761.19;5050753;28;20389;-61
2021/12/14 06:21:51;;;;;;;;;;;;;;;9.86;73.91;100755.94;5050673;28;20007;-60
2021/12/14 06:24:18;;;;;;;;;;;;;;;9.86;73.95;100759.44;5050940;28;19920;-60
2021/12/14 06:26:46;;;;;;;;;;;;;;;9.86;74.18;100758.56;5050678;28;19925;-60
2021/12/14 06:29:15;;;;;;;;;;;;;;;9.86;74.16;100766.44;5050895;28;19921;-60
2021/12/14 06:31:41;;;;;;;;;;;;;;;9.88;74.19;100764.63;5050690;28;20266;-61
2021/12/14 06:34:22;;;;;;;;;;;;;;;9.88;74.21;100754.13;5050821;28;19991;-62
2021/12/14 06:37:02;;;;;;;;;;;;;;;9.89;74.36;100755.81;5053544;28;19932;-61
2021/12/14 06:39:51;;;;;;;;;;;;;;;9.89;74.24;100756.69;5054681;28;19921;-61
2021/12/14 06:42:18;;;;;;;;;;;;;;;9.90;74.07;100765.41;5054525;28;20014;-60
2021/12/14 06:44:44;;;;;;;;;;;;;;;9.90;73.97;100768.03;5054992;28;20395;-61
2021/12/14 06:47:11;;;;;;;;;;;;;;;9.90;74.11;100775.94;5054645;28;20001;-60
2021/12/14 06:49:37;;;;;;;;;;;;;;;9.90;74.08;100768.03;5054354;28;19924;-61
2021/12/14 06:52:04;;;;;;;;;;;;;;;9.90;73.66;100775.94;5055081;28;19966;-60
2021/12/14 06:54:31;;;;;;;;;;;;;;;9.89;73.68;100783.00;5054630;28;20391;-61
2021/12/14 06:56:59;;;;;;;;;;;;;;;9.89;73.81;100792.63;5054664;28;19928;-60
2021/12/14 06:59:32;;;;;;;;;;;;;;;9.89;73.80;100803.16;5054382;28;19928;-61
2021/12/14 07:02:00;;;;;;;;;;;;;;;9.89;74.08;100803.16;5054239;28;19932;-60
2021/12/14 07:04:29;;;;;;;;;;;;;;;9.90;74.06;100791.72;5054816;28;19979;-60
2021/12/14 07:06:59;;;;;;;;;;;;;;;9.90;74.10;100794.34;5053199;28;19920;-60
2021/12/14 07:09:28;;;;;;;;;;;;;;;9.89;73.90;100804.03;5053011;28;19929;-60
2021/12/14 07:11:57;;;;;;;;;;;;;;;9.90;74.04;100796.97;5054407;28;19924;-60
2021/12/14 07:14:26;;;;;;;;;;;;;;;9.90;74.04;100791.72;5053148;28;20340;-60
2021/12/14 07:16:58;;;;;;;;;;;;;;;9.89;73.68;100804.03;5053921;28;19925;-60
2021/12/14 07:19:48;;;;;;;;;;;;;;;9.89;73.56;100801.41;5054283;28;20571;-60
2021/12/14 07:22:24;;;;;;;;;;;;;;;9.88;73.77;100802.28;5050968;28;19925;-61
2021/12/14 07:25:03;;;;;;;;;;;;;;;9.88;73.59;100811.97;5053124;28;19921;-61
2021/12/14 07:27:35;;;;;;;;;;;;;;;9.87;73.78;100812.91;5054155;28;19929;-61
2021/12/14 07:30:14;;;;;;;;;;;;;;;9.86;73.44;100808.53;5052801;28;19920;-61
2021/12/14 07:32:44;;;;;;;;;;;;;;;9.86;73.76;100813.78;5053800;28;19972;-59
2021/12/14 07:35:13;;;;;;;;;;;;;;;9.86;74.07;100808.53;5053825;28;19929;-61
2021/12/14 07:37:40;;;;;;;;;;;;;;;9.85;73.71;100810.31;5054391;28;19928;-61
2021/12/14 07:40:07;;;;;;;;;;;;;;;9.86;73.83;100809.41;5053953;28;19928;-60
2021/12/14 07:42:33;;;;;;;;;;;;;;;9.86;73.80;100812.03;5053707;28;19921;-60
2021/12/14 07:44:59;;;;;;;;;;;;;;;9.86;73.66;100814.66;5053653;28;19924;-60
2021/12/14 07:47:26;;;;;;;;;;;;;;;9.87;74.17;100824.25;5053594;28;19932;-60
2021/12/14 07:49:54;;;;;;;;;;;;;;;9.87;73.80;100820.78;5053439;28;19972;-61
2021/12/14 07:52:25;;;;;;;;;;;;;;;9.87;73.60;100828.69;5053493;28;19957;-61
2021/12/14 07:55:01;;;;;;;;;;;;;;;9.88;73.88;100835.63;5052557;28;19924;-61
2021/12/14 07:57:30;;;;;;;;;;;;;;;9.87;74.18;100840.03;5052038;28;19920;-60
2021/12/14 07:59:59;;;;;;;;;;;;;;;9.88;74.00;100840.91;5053254;28;20365;-61
2021/12/14 08:02:29;;;;;;;;;;;;;;;9.87;74.00;100842.66;5053110;28;19928;-61
2021/12/14 08:04:55;;;;;;;;;;;;;;;9.88;74.02;100833.84;5053721;28;19928;-60
2021/12/14 08:07:28;;;;;;;;;;;;;;;9.89;74.04;100837.34;5053214;28;20638;-62
2021/12/14 08:10:05;;;;;;;;;;;;;;;9.90;74.16;100836.44;5052957;28;20431;-60
2021/12/14 08:12:38;;;;;;;;;;;;;;;9.90;73.97;100824.16;5052148;28;19928;-62
2021/12/14 08:15:08;;;;;;;;;;;;;;;9.91;73.98;100827.66;5053188;28;20427;-61
2021/12/14 08:17:36;;;;;;;;;;;;;;;9.91;74.06;100825.03;5053540;28;19924;-62
2021/12/14 08:20:04;;;;;;;;;;;;;;;9.92;73.91;100824.09;5051659;28;19928;-60
2021/12/14 08:22:51;;;;;;;;;;;;;;;9.93;74.00;100824.94;5052895;28;20016;-60
2021/12/14 08:25:22;;;;;;;;;;;;;;;9.93;73.90;100830.19;5052945;28;20051;-60
2021/12/14 08:27:56;;;;;;;;;;;;;;;9.94;73.96;100837.19;5051588;28;19924;-61
2021/12/14 08:30:22;;;;;;;;;;;;;;;9.93;73.92;100830.19;5052760;28;19940;-63
2021/12/14 08:32:49;;;;;;;;;;;;;;;9.93;73.81;100832.81;5052738;28;19925;-60
2021/12/14 08:35:15;;;;;;;;;;;;;;;9.93;73.55;100844.22;5052743;28;19925;-60
2021/12/14 08:37:44;;;;;;;;;;;;;;;9.93;73.87;100841.59;5051639;28;19920;-58
2021/12/14 08:40:18;;;;;;;;;;;;;;;9.94;74.26;100850.34;5052291;28;19925;-61
2021/12/14 08:42:59;;;;;;;;;;;;;;;9.95;74.30;100860.81;5052605;28;19929;-62
2021/12/14 08:45:27;;;;;;;;;;;;;;;9.95;74.28;100855.56;5052765;28;19925;-60
2021/12/14 08:47:56;;;;;;;;;;;;;;;9.96;74.13;100859.91;5052547;28;19921;-60
2021/12/14 08:50:23;;;;;;;;;;;;;;;9.96;74.22;100862.53;5052313;28;19927;-59
2021/12/14 08:52:50;;;;;;;;;;;;;;;9.98;74.21;100868.56;5052587;28;19995;-60
2021/12/14 08:55:18;;;;;;;;;;;;;;;10.00;74.30;100872.03;5052361;28;20373;-61
2021/12/14 08:57:45;;;;;;;;;;;;;;;10.02;74.19;100864.91;5051900;28;19928;-60
2021/12/14 09:00:14;;;;;;;;;;;;;;;10.04;74.32;100865.72;5051970;28;20389;-61
2021/12/14 09:02:41;;;;;;;;;;;;;;;10.06;74.34;100854.28;5052132;28;19924;-60
2021/12/14 09:05:08;;;;;;;;;;;;;;;10.08;74.29;100855.06;5050692;28;19971;-61
2021/12/14 09:07:34;;;;;;;;;;;;;;;10.10;74.20;100856.72;5052322;28;19920;-60
2021/12/14 09:10:04;;;;;;;;;;;;;;;10.12;73.76;100857.53;5052147;28;20268;-61
2021/12/14 09:12:33;;;;;;;;;;;;;;;10.15;74.30;100860.06;5052251;28;19932;-61
2021/12/14 09:15:09;;;;;;;;;;;;;;;10.16;73.89;100860.91;5050826;28;19964;-60
2021/12/14 09:17:36;;;;;;;;;;;;;;;10.19;73.76;100862.56;5052365;28;19925;-62
2021/12/14 09:20:14;;;;;;;;;;;;;;;10.21;73.83;100866.84;5052078;28;19951;-60
2021/12/14 09:22:46;;;;;;;;;;;;;;;10.22;73.60;100865.97;5052299;28;19932;-60
2021/12/14 09:25:15;;;;;;;;;;;;;;;10.25;73.98;100862.34;5051995;28;19921;-60
2021/12/14 09:27:41;;;;;;;;;;;;;;;10.27;74.03;100855.25;5051744;28;19931;-60
2021/12/14 09:30:10;;;;;;;;;;;;;;;10.29;73.79;100863.94;5051564;28;19966;-61
2021/12/14 09:32:37;;;;;;;;;;;;;;;10.29;73.77;100867.41;5051945;28;19931;-61
2021/12/14 09:35:07;;;;;;;;;;;;;;;10.29;73.12;100864.78;5051969;28;19924;-61
2021/12/14 09:37:34;;;;;;;;;;;;;;;10.31;73.57;100867.38;5051512;28;20361;-61
2021/12/14 09:40:07;;;;;;;;;;;;;;;10.32;73.47;100871.72;5051355;28;19920;-60
2021/12/14 09:42:34;;;;;;;;;;;;;;;10.34;73.86;100866.38;5051370;28;19932;-61
2021/12/14 09:45:05;;;;;;;;;;;;;;;10.34;73.63;100863.75;5051611;28;19962;-60
2021/12/14 09:47:32;;;;;;;;;;;;;;;10.35;73.82;100874.22;5051246;28;20423;-60
2021/12/14 09:50:00;;;;;;;;;;;;;;;10.35;73.49;100876.88;5051391;28;20352;-60
2021/12/14 09:52:29;;;;;;;;;;;;;;;10.36;73.69;100859.31;5051314;28;19964;-60
2021/12/14 09:54:57;;;;;;;;;;;;;;;10.37;73.29;100866.28;5050287;28;19928;-60
2021/12/14 09:57:28;;;;;;;;;;;;;;;10.37;73.76;100848.72;5050336;28;19925;-61
2021/12/14 09:59:55;;;;;;;;;;;;;;;10.39;74.18;100848.69;5049692;28;19922;-61
2021/12/14 10:02:31;;;;;;;;;;;;;;;10.40;73.31;100847.75;5051064;28;19920;-60
2021/12/14 10:05:00;;;;;;;;;;;;;;;10.41;73.46;100845.06;5051273;28;20277;-60
2021/12/14 10:07:27;;;;;;;;;;;;;;;10.42;73.40;100838.00;5050912;28;20373;-62
2021/12/14 10:09:56;;;;;;;;;;;;;;;10.43;73.56;100840.56;5048797;28;20419;-60
2021/12/14 10:15:04;;;;;;;;;;;;;;;10.46;73.57;100844.91;5049776;28;20007;-60
2021/12/14 10:17:30;;;;;;;;;;;;;;;10.47;73.46;100853.66;5050915;28;19928;-61
2021/12/14 10:19:57;;;;;;;;;;;;;;;10.48;73.33;100853.59;5050807;28;19974;-61
2021/12/14 10:22:26;;;;;;;;;;;;;;;10.50;73.55;100846.50;5050737;28;20347;-60
2021/12/14 10:24:58;;;;;;;;;;;;;;;10.51;73.14;100842.94;5049905;28;19947;-60
2021/12/14 10:27:26;;;;;;;;;;;;;;;10.53;73.18;100853.41;5049609;28;19924;-61
2021/12/14 10:29:55;;;;;;;;;;;;;;;10.54;73.38;100836.69;5050607;28;19921;-61
2021/12/14 10:32:26;;;;;;;;;;;;;;;10.54;73.14;100839.31;5050594;28;20262;-60
2021/12/14 10:34:55;;;;;;;;;;;;;;;10.57;73.73;100854.16;5049809;28;19928;-59
2021/12/14 10:37:27;;;;;;;;;;;;;;;10.58;73.99;100843.56;5049644;28;20335;-60
2021/12/14 10:45:27;;;;;;;;;;;;;;;10.65;73.48;100839.75;5051011;28;19928;-61
2021/12/14 10:47:55;;;;;;;;;;;;;;;10.67;73.16;100847.59;5050904;28;19924;-60
2021/12/14 10:50:24;;;;;;;;;;;;;;;10.69;73.34;100840.50;5050948;28;19925;-62
2021/12/14 10:52:51;;;;;;;;;;;;;;;10.70;73.49;100844.84;5050534;28;19982;-60
2021/12/14 10:55:21;;;;;;;;;;;;;;;10.71;73.43;100833.41;5049334;28;19920;-61
2021/12/14 10:57:48;;;;;;;;;;;;;;;10.72;73.08;100837.75;5050746;28;19971;-60
2021/12/14 11:00:29;;;;;;;;;;;;;;;10.73;72.89;100833.34;5050893;28;20385;-60
2021/12/14 11:03:06;;;;;;;;;;;;;;;10.73;72.58;100833.34;5049307;28;19940;-60
2021/12/14 11:05:34;;;;;;;;;;;;;;;10.72;72.38;100835.09;5049487;28;19925;-60
2021/12/14 11:08:01;;;;;;;;;;;;;;;10.71;72.79;100836.03;5050326;28;19975;-61
2021/12/14 11:10:33;;;;;;;;;;;;;;;10.72;72.55;100840.38;5050237;28;19924;-62
2021/12/14 11:13:02;;;;;;;;;;;;;;;10.72;73.08;100844.81;5050370;28;19925;-61
2021/12/14 11:15:35;;;;;;;;;;;;;;;10.72;73.38;100837.75;5050655;28;19920;-60
2021/12/14 11:18:11;;;;;;;;;;;;;;;10.72;73.16;100832.47;5050510;28;19928;-60
2021/12/14 11:20:37;;;;;;;;;;;;;;;10.72;72.90;100843.00;5051150;28;19929;-61
2021/12/14 11:23:11;;;;;;;;;;;;;;;10.74;73.29;100845.59;5054176;28;19925;-60
2021/12/14 11:25:57;;;;;;;;;;;;;;;10.74;73.50;100838.56;5052859;28;19928;-60
2021/12/14 11:28:32;;;;;;;;;;;;;;;10.76;73.81;100836.69;5053880;28;20293;-61
2021/12/14 11:31:11;;;;;;;;;;;;;;;10.76;73.48;100841.97;5053937;28;19932;-61
2021/12/14 11:33:38;;;;;;;;;;;;;;;10.77;73.28;100853.38;5053034;28;19927;-60
2021/12/14 11:36:04;;;;;;;;;;;;;;;10.76;73.23;100849.03;5053991;28;19925;-61
2021/12/14 11:38:43;;;;;;;;;;;;;;;10.77;73.65;100845.47;5053774;28;19921;-61
2021/12/14 11:41:28;;;;;;;;;;;;;;;10.76;73.81;100828.81;5053463;28;19928;-60
2021/12/14 11:44:06;;;;;;;;;;;;;;;10.77;73.68;100832.31;5053781;28;20376;-64
2021/12/14 11:46:44;;;;;;;;;;;;;;;10.77;73.74;100832.31;5053970;28;19944;-61
2021/12/14 11:49:11;;;;;;;;;;;;;;;10.77;73.51;100827.88;5053183;28;20350;-60
2021/12/14 11:51:37;;;;;;;;;;;;;;;10.77;73.80;100824.41;5053757;28;19928;-60
2021/12/14 11:54:04;;;;;;;;;;;;;;;10.76;73.97;100820.91;5053483;28;20015;-61
2021/12/14 11:56:31;;;;;;;;;;;;;;;10.77;74.17;100827.88;5053272;28;19932;-62
2021/12/14 11:59:01;;;;;;;;;;;;;;;10.77;74.26;100821.78;5053536;28;19990;-60
2021/12/14 12:01:33;;;;;;;;;;;;;;;10.80;74.54;100826.88;5035559;28;19924;-61
2021/12/14 12:04:02;;;;;;;;;;;;;;;10.81;74.59;100826.00;5053472;28;19935;-61
2021/12/14 12:12:14;;;;;;;;;;;;;;;10.82;74.10;100817.16;5053191;28;19920;-60
2021/12/14 12:14:47;;;;;;;;;;;;;;;10.82;73.97;100809.25;5049194;28;19925;-59
2021/12/14 12:17:16;;;;;;;;;;;;;;;10.83;74.16;100813.59;5051951;28;19924;-59
2021/12/14 12:19:53;;;;;;;;;;;;;;;10.84;73.75;100817.94;5052415;28;19968;-60
2021/12/14 12:22:20;;;;;;;;;;;;;;;10.85;74.04;100813.53;5053071;28;19921;-62
2021/12/14 12:24:49;;;;;;;;;;;;;;;10.85;73.48;100818.81;5052931;28;19928;-60
2021/12/14 12:27:34;;;;;;;;;;;;;;;10.87;73.90;100814.34;5052577;28;20335;-59
2021/12/14 12:30:10;;;;;;;;;;;;;;;10.85;73.71;100814.41;5052721;28;19964;-60
2021/12/14 12:32:37;;;;;;;;;;;;;;;10.87;73.65;100814.34;5052171;28;19955;-60
2021/12/14 12:35:19;;;;;;;;;;;;;;;10.90;73.84;100816.84;5052887;28;19925;-61
2021/12/14 12:37:46;;;;;;;;;;;;;;;10.92;73.92;100815.00;5052837;28;19982;-59
2021/12/14 12:40:14;;;;;;;;;;;;;;;10.94;73.75;100818.44;5052561;28;19925;-61
2021/12/14 12:42:42;;;;;;;;;;;;;;;10.97;74.13;100817.44;5052573;28;19921;-59
2021/12/14 12:45:31;;;;;;;;;;;;;;;10.98;74.11;100822.66;5051594;28;19925;-60
2021/12/14 12:47:57;;;;;;;;;;;;;;;11.01;74.02;100827.81;5052480;28;19986;-61
2021/12/14 12:50:25;;;;;;;;;;;;;;;11.02;73.74;100826.88;5052725;28;19924;-59
2021/12/14 12:52:51;;;;;;;;;;;;;;;11.03;73.98;100828.56;5052528;28;19945;-59
2021/12/14 12:55:34;;;;;;;;;;;;;;;11.04;73.70;100829.44;5052310;28;19931;-60
2021/12/14 12:58:12;;;;;;;;;;;;;;;11.04;73.54;100825.03;5052564;28;19924;-60
2021/12/14 13:00:42;;;;;;;;;;;;;;;11.04;73.45;100835.59;5051949;28;19925;-60
2021/12/14 13:03:36;;;;;;;;;;;;;;;11.03;73.17;100825.94;5049406;28;19924;-61
2021/12/14 13:06:09;;;;;;;;;;;;;;;11.04;73.57;100827.69;5049537;28;19921;-60
2021/12/14 13:08:36;;;;;;;;;;;;;;;11.04;73.69;100818.91;5050793;28;19921;-61
2021/12/14 13:11:12;;;;;;;;;;;;;;;11.05;73.90;100816.22;5050304;28;19929;-59
2021/12/14 13:14:05;;;;;;;;;;;;;;;11.04;73.63;100814.50;5050795;28;19933;-61
2021/12/14 13:16:39;;;;;;;;;;;;;;;11.05;73.59;100816.22;5047662;28;19944;-60
2021/12/14 13:19:11;;;;;;;;;;;;;;;11.05;73.54;100821.47;5050626;28;19928;-63
2021/12/14 13:21:40;;;;;;;;;;;;;;;11.06;74.12;100811.78;5052500;28;20291;-60
2021/12/14 13:24:13;;;;;;;;;;;;;;;11.07;74.08;100819.63;5051951;28;19967;-61
2021/12/14 13:26:48;;;;;;;;;;;;;;;11.08;73.74;100820.50;5052227;28;20311;-61
2021/12/14 13:29:22;;;;;;;;;;;;;;;11.09;73.49;100816.94;5051474;28;19924;-61
2021/12/14 13:31:48;;;;;;;;;;;;;;;11.07;73.50;100817.00;5051612;28;19924;-60
2021/12/14 13:34:37;;;;;;;;;;;;;;;11.05;73.65;100816.22;5051834;28;19920;-59
2021/12/14 13:37:05;;;;;;;;;;;;;;;11.04;73.57;100821.53;5051945;28;19962;-60